createdAt,value
2018-02-12T00:01:39.094Z,93080.00
2018-02-12T00:04:06.766Z,93082.03
2018-02-12T00:06:34.312Z,93080.82
2018-02-12T00:09:01.866Z,93080.34
2018-02-12T00:11:29.589Z,93084.91
2018-02-12T00:13:57.133Z,93083.67
2018-02-12T00:16:24.666Z,93085.30
2018-02-12T00:18:53.391Z,93088.66
2018-02-12T00:21:20.943Z,93087.45
2018-02-12T00:23:48.481Z,93085.56
2018-02-12T00:26:16.228Z,93088.03
2018-02-12T00:28:43.785Z,93089.23
2018-02-12T00:31:11.327Z,93086.30
2018-02-12T00:33:39.062Z,93088.71
2018-02-12T00:36:06.607Z,93084.20
2018-02-12T00:38:34.147Z,93089.23
2018-02-12T00:41:01.734Z,93085.59
2018-02-12T00:43:29.286Z,93090.00
2018-02-12T00:45:56.828Z,93094.45
2018-02-12T00:48:24.498Z,93086.47
2018-02-12T00:50:52.046Z,93088.63
2018-02-12T00:53:19.586Z,93087.42
2018-02-12T00:55:47.192Z,93095.16
2018-02-12T00:58:14.730Z,93089.83
2018-02-12T01:00:42.266Z,93092.66
2018-02-12T01:03:09.845Z,93088.80
2018-02-12T01:05:37.391Z,93092.77
2018-02-12T01:08:04.946Z,93094.09
2018-02-12T01:10:32.506Z,93089.86
2018-02-12T01:13:00.053Z,93094.86
2018-02-12T01:15:27.642Z,93093.16
2018-02-12T01:17:55.178Z,93091.16
2018-02-12T01:20:22.726Z,93089.13
2018-02-12T01:22:51.049Z,93094.59
2018-02-12T01:25:18.592Z,93092.42
2018-02-12T01:27:46.153Z,93093.66
2018-02-12T01:30:13.745Z,93091.12
2018-02-12T01:32:41.299Z,93090.72
2018-02-12T01:35:08.840Z,93088.30
2018-02-12T01:37:36.649Z,93092.03
2018-02-12T01:40:04.197Z,93092.62
2018-02-12T01:42:31.738Z,93088.06
2018-02-12T01:44:59.411Z,93095.39
2018-02-12T01:47:26.953Z,93098.60
2018-02-12T01:50:06.471Z,93098.22
2018-02-12T01:52:34.007Z,93094.56
2018-02-12T01:55:01.576Z,93094.09
2018-02-12T01:57:29.312Z,93101.10
2018-02-12T01:59:56.847Z,93096.16
2018-02-12T02:02:24.412Z,93102.31
2018-02-12T02:04:52.148Z,93109.73
2018-02-12T02:07:19.699Z,93109.78
2018-02-12T02:09:47.248Z,93103.66
2018-02-12T02:12:14.930Z,93112.31
2018-02-12T02:14:42.482Z,93104.81
2018-02-12T02:17:10.094Z,93104.78
2018-02-12T02:19:37.967Z,93104.81
2018-02-12T02:22:05.514Z,93108.08
2018-02-12T02:24:33.054Z,93108.11
2018-02-12T02:27:00.625Z,93113.08
2018-02-12T02:29:28.176Z,93108.93
2018-02-12T02:31:55.721Z,93115.55
2018-02-12T02:34:23.463Z,93101.88
2018-02-12T02:36:51.023Z,93103.41
2018-02-12T02:39:18.598Z,93103.37
2018-02-12T02:41:46.469Z,93103.93
2018-02-12T02:44:14.024Z,93108.60
2018-02-12T02:46:41.583Z,93107.01
2018-02-12T02:49:09.453Z,93108.43
2018-02-12T02:51:37.009Z,93109.28
2018-02-12T02:54:04.572Z,93109.30
2018-02-12T02:56:32.149Z,93109.33
2018-02-12T02:58:59.696Z,93115.45
2018-02-12T03:01:27.242Z,93121.25
2018-02-12T03:03:54.822Z,93119.50
2018-02-12T03:06:22.373Z,93117.34
2018-02-12T03:08:49.918Z,93120.33
2018-02-12T03:11:17.505Z,93124.80
2018-02-12T03:13:45.059Z,93122.77
2018-02-12T03:16:12.606Z,93117.31
2018-02-12T03:18:40.342Z,93117.36
2018-02-12T03:21:07.906Z,93116.53
2018-02-12T03:23:35.483Z,93118.63
2018-02-12T03:26:03.062Z,93123.52
2018-02-12T03:28:30.619Z,93121.81
2018-02-12T03:30:58.176Z,93124.03
2018-02-12T03:33:25.865Z,93122.79
2018-02-12T03:35:53.407Z,93120.25
2018-02-12T03:38:20.957Z,93119.42
2018-02-12T03:40:48.529Z,93114.04
2018-02-12T03:43:16.073Z,93119.31
2018-02-12T03:45:48.080Z,93113.13
2018-02-12T03:48:15.774Z,93114.78
2018-02-12T03:50:43.315Z,93113.73
2018-02-12T03:53:10.863Z,93116.18
2018-02-12T03:55:38.456Z,93111.44
2018-02-12T03:58:06.005Z,93115.00
2018-02-12T04:00:33.554Z,93116.18
2018-02-12T04:03:01.246Z,93118.95
2018-02-12T04:05:28.803Z,93117.20
2018-02-12T04:07:56.377Z,93115.50
2018-02-12T04:10:23.923Z,93112.53
2018-02-12T04:12:51.479Z,93110.91
2018-02-12T04:15:19.143Z,93114.50
2018-02-12T04:17:46.691Z,93114.59
2018-02-12T04:20:14.240Z,93114.56
2018-02-12T04:22:41.945Z,93119.67
2018-02-12T04:25:09.493Z,93115.52
2018-02-12T04:27:37.043Z,93117.59
2018-02-12T04:30:04.664Z,93121.66
2018-02-12T04:32:32.216Z,93122.42
2018-02-12T04:34:59.757Z,93122.45
2018-02-12T04:37:27.704Z,93117.03
2018-02-12T04:39:55.256Z,93120.38
2018-02-12T04:42:22.798Z,93115.52
2018-02-12T04:44:50.388Z,93119.03
2018-02-12T04:47:17.943Z,93117.83
2018-02-12T04:49:45.482Z,93118.59
2018-02-12T04:52:13.102Z,93123.95
2018-02-12T04:54:40.644Z,93125.16
2018-02-12T04:57:08.192Z,93128.53
2018-02-12T04:59:36.058Z,93120.27
2018-02-12T05:02:03.607Z,93127.25
2018-02-12T05:04:31.173Z,93126.12
2018-02-12T05:06:58.859Z,93135.10
2018-02-12T05:09:26.403Z,93131.91
2018-02-12T05:11:53.957Z,93136.41
2018-02-12T05:14:21.574Z,93136.39
2018-02-12T05:16:49.132Z,93142.52
2018-02-12T05:19:16.689Z,93140.05
2018-02-12T05:21:44.377Z,93141.72
2018-02-12T05:24:11.950Z,93154.88
2018-02-12T05:26:39.514Z,93158.71
2018-02-12T05:29:07.113Z,93160.72
2018-02-12T05:31:34.655Z,93159.53
2018-02-12T05:34:02.203Z,93164.47
2018-02-12T05:36:29.922Z,93171.43
2018-02-12T05:38:57.562Z,93173.15
2018-02-12T05:41:25.112Z,93178.43
2018-02-12T05:43:52.710Z,93182.09
2018-02-12T05:46:20.268Z,93171.72
2018-02-12T05:48:47.814Z,93184.08
2018-02-12T05:51:15.508Z,93189.84
2018-02-12T05:53:43.050Z,93179.13
2018-02-12T05:56:10.638Z,93192.27
2018-02-12T05:58:38.210Z,93196.08
2018-02-12T06:01:05.771Z,93191.08
2018-02-12T06:03:33.310Z,93195.66
2018-02-12T06:06:00.898Z,93195.30
2018-02-12T06:08:28.510Z,93190.83
2018-02-12T06:10:56.062Z,93193.83
2018-02-12T06:13:23.747Z,93193.63
2018-02-12T06:15:51.308Z,93196.90
2018-02-12T06:18:18.855Z,93204.68
2018-02-12T06:20:46.597Z,93204.22
2018-02-12T06:23:14.154Z,93205.80
2018-02-12T06:25:41.704Z,93212.29
2018-02-12T06:28:09.581Z,93212.58
2018-02-12T06:30:37.125Z,93211.26
2018-02-12T06:33:04.669Z,93211.16
2018-02-12T06:35:32.245Z,93211.84
2018-02-12T06:37:59.792Z,93211.84
2018-02-12T06:40:27.340Z,93209.31
2018-02-12T06:42:55.022Z,93211.23
2018-02-12T06:45:22.580Z,93209.49
2018-02-12T06:47:50.133Z,93210.32
2018-02-12T06:50:17.854Z,93208.61
2018-02-12T06:52:45.405Z,93207.81
2018-02-12T06:55:12.966Z,93209.75
2018-02-12T06:57:40.566Z,93211.85
2018-02-12T07:00:09.131Z,93210.16
2018-02-12T07:02:36.683Z,93216.17
2018-02-12T07:05:04.367Z,93216.59
2018-02-12T07:07:31.918Z,93219.44
2018-02-12T07:09:59.468Z,93222.27
2018-02-12T07:12:27.153Z,93224.78
2018-02-12T07:14:54.707Z,93224.39
2018-02-12T07:17:22.255Z,93231.44
2018-02-12T07:19:49.833Z,93229.67
2018-02-12T07:22:17.393Z,93233.25
2018-02-12T07:24:44.941Z,93234.84
2018-02-12T07:27:12.693Z,93230.68
2018-02-12T07:29:40.252Z,93225.82
2018-02-12T07:32:07.807Z,93223.28
2018-02-12T07:34:35.379Z,93223.88
2018-02-12T07:37:02.968Z,93225.39
2018-02-12T07:39:30.523Z,93230.83
2018-02-12T07:41:58.396Z,93227.11
2018-02-12T07:44:25.949Z,93222.50
2018-02-12T07:46:54.127Z,93224.63
2018-02-12T07:49:21.914Z,93224.45
2018-02-12T07:51:49.471Z,93227.16
2018-02-12T07:54:17.016Z,93227.16
2018-02-12T07:56:44.710Z,93233.19
2018-02-12T07:59:12.273Z,93234.42
2018-02-12T08:01:39.825Z,93235.40
2018-02-12T08:04:07.418Z,93233.53
2018-02-12T08:06:34.965Z,93235.05
2018-02-12T08:09:02.515Z,93232.79
2018-02-12T08:11:30.089Z,93235.58
2018-02-12T08:13:57.634Z,93238.13
2018-02-12T08:16:25.211Z,93231.89
2018-02-12T08:18:52.765Z,93238.09
2018-02-12T08:21:20.311Z,93238.77
2018-02-12T08:23:47.892Z,93239.56
2018-02-12T08:26:15.445Z,93241.88
2018-02-12T08:28:43.000Z,93242.45
2018-02-12T08:31:10.586Z,93244.52
2018-02-12T08:33:38.142Z,93239.48
2018-02-12T08:36:05.697Z,93240.55
2018-02-12T08:38:33.432Z,93243.22
2018-02-12T08:41:01.021Z,93249.45
2018-02-12T08:43:28.569Z,93238.74
2018-02-12T08:45:56.178Z,93239.22
2018-02-12T08:48:23.726Z,93240.84
2018-02-12T08:50:51.294Z,93238.48
2018-02-12T08:53:18.875Z,93234.50
2018-02-12T08:55:46.430Z,93238.59
2018-02-12T08:58:13.982Z,93245.61
2018-02-12T09:00:41.580Z,93246.56
2018-02-12T09:03:09.140Z,93247.53
2018-02-12T09:05:36.689Z,93245.88
2018-02-12T09:08:04.399Z,93249.67
2018-02-12T09:10:31.943Z,93254.41
2018-02-12T09:12:59.499Z,93256.17
2018-02-12T09:15:27.246Z,93257.86
2018-02-12T09:17:54.827Z,93251.92
2018-02-12T09:20:22.376Z,93256.40
2018-02-12T09:22:50.059Z,93253.42
2018-02-12T09:25:17.619Z,93259.46
2018-02-12T09:27:45.167Z,93258.75
2018-02-12T09:30:12.749Z,93260.20
2018-02-12T09:32:40.303Z,93262.53
2018-02-12T09:35:07.869Z,93260.50
2018-02-12T09:37:35.551Z,93256.66
2018-02-12T09:40:03.136Z,93259.93
2018-02-12T09:42:30.694Z,93264.11
2018-02-12T09:44:58.386Z,93256.59
2018-02-12T09:47:25.938Z,93261.22
2018-02-12T09:49:53.497Z,93253.73
2018-02-12T09:52:21.180Z,93256.73
2018-02-12T09:54:48.728Z,93244.73
2018-02-12T09:57:16.270Z,93249.24
2018-02-12T09:59:43.967Z,93247.18
2018-02-12T10:02:12.862Z,93248.81
2018-02-12T10:04:40.406Z,93253.95
2018-02-12T10:07:07.985Z,93247.41
2018-02-12T10:09:35.524Z,93247.05
2018-02-12T10:12:03.075Z,93243.61
2018-02-12T10:14:30.668Z,93246.30
2018-02-12T10:16:58.239Z,93240.80
2018-02-12T10:19:25.792Z,93239.93
2018-02-12T10:21:53.395Z,93243.77
2018-02-12T10:24:20.942Z,93236.70
2018-02-12T10:26:48.518Z,93235.73
2018-02-12T10:29:16.736Z,93226.62
2018-02-12T10:31:44.285Z,93228.52
2018-02-12T10:34:11.830Z,93228.39
2018-02-12T10:36:39.398Z,93225.17
2018-02-12T10:39:06.972Z,93226.13
2018-02-12T10:41:34.523Z,93223.14
2018-02-12T10:44:02.288Z,93222.05
2018-02-12T10:46:29.868Z,93221.16
2018-02-12T10:48:57.441Z,93227.93
2018-02-12T10:51:25.172Z,93224.95
2018-02-12T10:53:52.713Z,93222.73
2018-02-12T10:56:20.275Z,93225.82
2018-02-12T10:58:47.900Z,93224.41
2018-02-12T11:01:15.465Z,93226.47
2018-02-12T11:03:43.028Z,93223.56
2018-02-12T11:06:10.606Z,93221.55
2018-02-12T11:08:38.182Z,93218.75
2018-02-12T11:11:05.730Z,93227.06
2018-02-12T11:13:33.408Z,93227.52
2018-02-12T11:16:00.971Z,93222.16
2018-02-12T11:18:28.513Z,93218.54
2018-02-12T11:20:56.095Z,93220.19
2018-02-12T11:23:23.652Z,93218.38
2018-02-12T11:25:51.204Z,93216.02
2018-02-12T11:28:18.796Z,93217.14
2018-02-12T11:30:46.369Z,93215.92
2018-02-12T11:33:13.931Z,93210.41
2018-02-12T11:35:41.507Z,93208.98
2018-02-12T11:38:09.073Z,93213.49
2018-02-12T11:40:36.630Z,93212.63
2018-02-12T11:43:04.361Z,93207.41
2018-02-12T11:45:31.915Z,93206.96
2018-02-12T11:47:59.461Z,93206.73
2018-02-12T11:50:27.154Z,93203.36
2018-02-12T11:52:56.459Z,93204.98
2018-02-12T11:55:24.006Z,93202.34
2018-02-12T11:57:51.712Z,93199.16
2018-02-12T12:00:19.278Z,93199.50
2018-02-12T12:02:46.826Z,93193.39
2018-02-12T12:05:14.561Z,93193.97
2018-02-12T12:07:42.104Z,93197.44
2018-02-12T12:10:09.660Z,93196.58
2018-02-12T12:12:37.348Z,93202.33
2018-02-12T12:15:04.921Z,93201.61
2018-02-12T12:17:32.478Z,93206.25
2018-02-12T12:20:00.231Z,93196.76
2018-02-12T12:22:27.789Z,93200.52
2018-02-12T12:24:55.337Z,93196.30
2018-02-12T12:27:22.923Z,93201.36
2018-02-12T12:29:50.478Z,93196.73
2018-02-12T12:32:18.038Z,93202.20
2018-02-12T12:34:45.775Z,93201.63
2018-02-12T12:37:13.362Z,93204.55
2018-02-12T12:39:40.917Z,93203.70
2018-02-12T12:42:08.788Z,93200.27
2018-02-12T12:44:36.332Z,93200.36
2018-02-12T12:47:03.898Z,93197.96
2018-02-12T12:49:31.484Z,93185.41
2018-02-12T12:51:59.036Z,93196.67
2018-02-12T12:54:26.588Z,93182.62
2018-02-12T12:56:54.464Z,93186.20
2018-02-12T12:59:22.004Z,93181.03
2018-02-12T13:01:49.555Z,93185.28
2018-02-12T13:04:17.301Z,93181.07
2018-02-12T13:06:44.853Z,93188.56
2018-02-12T13:09:12.416Z,93183.98
2018-02-12T13:11:39.982Z,93187.05
2018-02-12T13:14:07.541Z,93183.08
2018-02-12T13:16:35.239Z,93183.75
2018-02-12T13:19:02.787Z,93193.28
2018-02-12T13:21:30.369Z,93186.16
2018-02-12T13:23:58.020Z,93191.36
2018-02-12T13:26:25.585Z,93186.19
2018-02-12T13:28:53.148Z,93186.74
2018-02-12T13:31:20.890Z,93188.28
2018-02-12T13:33:48.439Z,93188.64
2018-02-12T13:36:16.003Z,93197.05
2018-02-12T13:38:43.583Z,93193.83
2018-02-12T13:41:11.132Z,93191.89
2018-02-12T13:43:38.728Z,93193.41
2018-02-12T13:46:06.422Z,93193.81
2018-02-12T13:48:33.979Z,93200.91
2018-02-12T13:51:01.544Z,93192.20
2018-02-12T13:53:29.134Z,93194.16
2018-02-12T13:55:56.691Z,93198.50
2018-02-12T13:58:24.264Z,93195.58
2018-02-12T14:00:52.078Z,93195.50
2018-02-12T14:03:19.638Z,93196.39
2018-02-12T14:05:47.195Z,93198.81
2018-02-12T14:08:15.416Z,93198.33
2018-02-12T14:10:42.978Z,93196.30
2018-02-12T14:13:10.531Z,93200.98
2018-02-12T14:15:38.312Z,93198.02
2018-02-12T14:18:06.547Z,93201.59
2018-02-12T14:20:34.113Z,93191.47
2018-02-12T14:23:01.693Z,93197.27
2018-02-12T14:25:29.293Z,93201.70
2018-02-12T14:27:56.870Z,93204.03
2018-02-12T14:30:24.618Z,93202.75
2018-02-12T14:32:52.174Z,93207.18
2018-02-12T14:35:19.730Z,93207.67
2018-02-12T14:37:47.339Z,93214.62
2018-02-12T14:40:14.898Z,93210.41
2018-02-12T14:42:42.462Z,93214.25
2018-02-12T14:45:10.069Z,93220.03
2018-02-12T14:47:37.621Z,93222.92
2018-02-12T14:50:05.214Z,93224.17
2018-02-12T14:52:32.903Z,93229.99
2018-02-12T14:55:00.467Z,93228.30
2018-02-12T14:57:28.039Z,93232.39
2018-02-12T14:59:55.927Z,93229.58
2018-02-12T15:02:23.501Z,93231.87
2018-02-12T15:04:51.083Z,93230.92
2018-02-12T15:07:18.951Z,93227.94
2018-02-12T15:09:46.516Z,93227.17
2018-02-12T15:12:14.072Z,93229.61
2018-02-12T15:14:41.777Z,93231.27
2018-02-12T15:17:09.329Z,93224.01
2018-02-12T15:19:36.921Z,93225.73
2018-02-12T15:22:04.789Z,93234.55
2018-02-12T15:24:32.377Z,93236.26
2018-02-12T15:26:59.943Z,93242.32
2018-02-12T15:29:27.702Z,93238.95
2018-02-12T15:31:55.259Z,93241.32
2018-02-12T15:34:22.822Z,93241.28
2018-02-12T15:36:50.477Z,93245.80
2018-02-12T15:39:18.036Z,93248.27
2018-02-12T15:41:46.537Z,93251.23
2018-02-12T15:44:14.119Z,93253.98
2018-02-12T15:46:41.686Z,93253.60
2018-02-12T15:49:09.258Z,93256.02
2018-02-12T15:51:37.163Z,93255.04
2018-02-12T15:54:04.727Z,93254.81
2018-02-12T15:56:32.320Z,93260.30
2018-02-12T15:58:59.908Z,93260.39
2018-02-12T16:01:27.462Z,93256.94
2018-02-12T16:03:55.019Z,93257.70
2018-02-12T16:06:22.597Z,93266.44
2018-02-12T16:08:51.150Z,93270.27
2018-02-12T16:11:18.707Z,93271.91
2018-02-12T16:13:46.293Z,93271.12
2018-02-12T16:16:13.860Z,93265.87
2018-02-12T16:18:41.431Z,93273.77
2018-02-12T16:21:09.160Z,93272.03
2018-02-12T16:23:36.726Z,93275.27
2018-02-12T16:26:04.283Z,93275.72
2018-02-12T16:28:31.950Z,93272.33
2018-02-12T16:30:59.494Z,93264.66
2018-02-12T16:33:27.052Z,93269.73
2018-02-12T16:35:54.655Z,93263.57
2018-02-12T16:38:22.210Z,93254.81
2018-02-12T16:40:49.785Z,93267.13
2018-02-12T16:43:17.399Z,93272.82
2018-02-12T16:45:44.968Z,93266.85
2018-02-12T16:48:12.569Z,93274.98
2018-02-12T16:50:40.422Z,93276.89
2018-02-12T16:53:07.966Z,93284.29
2018-02-12T16:55:35.524Z,93283.75
2018-02-12T16:58:03.262Z,93280.98
2018-02-12T17:00:30.826Z,93286.89
2018-02-12T17:02:58.421Z,93285.59
2018-02-12T17:05:26.021Z,93290.95
2018-02-12T17:07:53.586Z,93295.59
2018-02-12T17:10:21.147Z,93290.66
2018-02-12T17:12:48.916Z,93296.91
2018-02-12T17:15:16.491Z,93296.09
2018-02-12T17:17:44.055Z,93300.95
2018-02-12T17:20:11.653Z,93292.25
2018-02-12T17:22:39.216Z,93297.14
2018-02-12T17:25:06.782Z,93292.55
2018-02-12T17:27:34.390Z,93299.19
2018-02-12T17:30:01.959Z,93300.07
2018-02-12T17:32:29.522Z,93302.55
2018-02-12T17:34:57.112Z,93300.84
2018-02-12T17:37:26.830Z,93305.66
2018-02-12T17:39:54.439Z,93298.23
2018-02-12T17:42:22.053Z,93299.41
2018-02-12T17:44:49.651Z,93309.41
2018-02-12T17:47:17.283Z,93309.05
2018-02-12T17:49:44.913Z,93308.48
2018-02-12T17:52:12.540Z,93309.41
2018-02-12T17:54:40.106Z,93308.19
2018-02-12T17:57:07.985Z,93305.43
2018-02-12T17:59:35.606Z,93302.13
2018-02-12T18:02:03.198Z,93306.52
2018-02-12T18:04:30.802Z,93308.42
2018-02-12T18:06:58.429Z,93308.14
2018-02-12T18:09:25.990Z,93311.80
2018-02-12T18:11:53.558Z,93314.92
2018-02-12T18:14:21.127Z,93311.75
2018-02-12T18:16:48.732Z,93315.84
2018-02-12T18:19:16.983Z,93313.52
2018-02-12T18:21:44.550Z,93312.83
2018-02-12T18:24:12.151Z,93312.91
2018-02-12T18:26:39.725Z,93319.05
2018-02-12T18:29:07.269Z,93312.30
2018-02-12T18:31:35.015Z,93313.56
2018-02-12T18:34:02.576Z,93315.91
2018-02-12T18:36:30.143Z,93323.27
2018-02-12T18:38:57.943Z,93324.05
2018-02-12T18:41:25.496Z,93325.34
2018-02-12T18:43:53.080Z,93326.36
2018-02-12T18:46:20.655Z,93331.39
2018-02-12T18:48:48.234Z,93337.17
2018-02-12T18:51:15.789Z,93338.64
2018-02-12T18:53:43.545Z,93338.36
2018-02-12T18:56:11.179Z,93335.31
2018-02-12T18:58:38.759Z,93327.04
2018-02-12T19:01:06.665Z,93332.23
2018-02-12T19:03:34.237Z,93333.06
2018-02-12T19:06:01.807Z,93337.51
2018-02-12T19:08:29.468Z,93331.75
2018-02-12T19:10:57.036Z,93332.53
2018-02-12T19:13:24.646Z,93331.91
2018-02-12T19:15:52.332Z,93333.88
2018-02-12T19:18:19.891Z,93331.70
2018-02-12T19:20:47.477Z,93333.77
2018-02-12T19:23:15.238Z,93337.42
2018-02-12T19:25:42.847Z,93345.04
2018-02-12T19:28:10.437Z,93349.44
2018-02-12T19:30:38.326Z,93343.42
2018-02-12T19:33:05.950Z,93346.79
2018-02-12T19:35:33.654Z,93348.02
2018-02-12T19:38:01.432Z,93344.61
2018-02-12T19:40:29.020Z,93342.86
2018-02-12T19:42:56.609Z,93354.30
2018-02-12T19:45:24.310Z,93350.97
2018-02-12T19:47:51.878Z,93355.48
2018-02-12T19:50:19.465Z,93354.41
2018-02-12T19:52:47.370Z,93357.50
2018-02-12T19:55:14.947Z,93360.16
2018-02-12T19:57:42.525Z,93357.59
2018-02-12T20:00:10.327Z,93359.42
2018-02-12T20:02:37.910Z,93360.75
2018-02-12T20:05:05.501Z,93361.30
2018-02-12T20:07:33.288Z,93355.56
2018-02-12T20:10:00.942Z,93358.94
2018-02-12T20:12:28.537Z,93361.52
2018-02-12T20:14:56.304Z,93364.88
2018-02-12T20:17:23.857Z,93360.25
2018-02-12T20:19:51.470Z,93357.59
2018-02-12T20:22:19.213Z,93361.33
2018-02-12T20:24:46.829Z,93364.52
2018-02-12T20:27:14.446Z,93365.48
2018-02-12T20:29:42.172Z,93371.78
2018-02-12T20:32:09.727Z,93375.10
2018-02-12T20:34:37.311Z,93377.08
2018-02-12T20:37:04.914Z,93381.16
2018-02-12T20:39:32.496Z,93377.10
2018-02-12T20:42:00.071Z,93377.80
2018-02-12T20:44:27.670Z,93380.13
2018-02-12T20:46:55.259Z,93380.61
2018-02-12T20:49:22.836Z,93377.01
2018-02-12T20:51:50.647Z,93384.10
2018-02-12T20:54:18.210Z,93382.44
2018-02-12T20:56:45.834Z,93383.33
2018-02-12T20:59:13.604Z,93390.25
2018-02-12T21:01:41.208Z,93381.45
2018-02-12T21:04:08.768Z,93388.12
2018-02-12T21:06:36.501Z,93383.69
2018-02-12T21:09:04.129Z,93391.92
2018-02-12T21:11:31.683Z,93392.22
2018-02-12T21:13:59.433Z,93397.66
2018-02-12T21:16:26.986Z,93394.48
2018-02-12T21:18:54.567Z,93394.13
2018-02-12T21:21:22.277Z,93391.97
2018-02-12T21:23:49.868Z,93394.32
2018-02-12T21:26:17.417Z,93394.72
2018-02-12T21:28:45.122Z,93387.48
2018-02-12T21:31:12.669Z,93395.77
2018-02-12T21:33:40.232Z,93392.41
2018-02-12T21:36:08.122Z,93394.92
2018-02-12T21:38:35.681Z,93402.84
2018-02-12T21:41:03.241Z,93395.91
2018-02-12T21:43:31.011Z,93399.20
2018-02-12T21:45:58.567Z,93401.26
2018-02-12T21:48:26.142Z,93405.78
2018-02-12T21:50:53.858Z,93403.70
2018-02-12T21:53:21.411Z,93403.30
2018-02-12T21:55:48.959Z,93401.68
2018-02-12T21:58:16.561Z,93408.65
2018-02-12T22:00:44.131Z,93406.23
2018-02-12T22:03:11.690Z,93404.21
2018-02-12T22:05:39.382Z,93405.10
2018-02-12T22:08:06.950Z,93401.81
2018-02-12T22:10:34.519Z,93404.70
2018-02-12T22:13:02.094Z,93405.52
2018-02-12T22:15:29.655Z,93409.24
2018-02-12T22:17:57.215Z,93409.67
2018-02-12T22:20:24.966Z,93412.54
2018-02-12T22:22:52.523Z,93412.15
2018-02-12T22:25:20.084Z,93417.08
2018-02-12T22:27:47.821Z,93423.66
2018-02-12T22:30:15.380Z,93414.23
2018-02-12T22:32:42.942Z,93423.30
2018-02-12T22:35:10.647Z,93423.30
2018-02-12T22:37:38.206Z,93423.32
2018-02-12T22:40:05.765Z,93427.41
2018-02-12T22:42:33.500Z,93429.87
2018-02-12T22:45:01.073Z,93429.89
2018-02-12T22:47:28.663Z,93432.34
2018-02-12T22:49:56.405Z,93427.83
2018-02-12T22:52:23.966Z,93428.26
2018-02-12T22:54:51.521Z,93424.98
2018-02-12T22:57:19.261Z,93421.67
2018-02-12T22:59:46.808Z,93425.78
2018-02-12T23:02:14.374Z,93417.17
2018-02-12T23:04:42.064Z,93418.38
2018-02-12T23:07:09.634Z,93423.31
2018-02-12T23:09:37.199Z,93425.38
2018-02-12T23:12:04.760Z,93425.33
2018-02-12T23:14:32.309Z,93431.12
2018-02-12T23:17:05.434Z,93431.93
2018-02-12T23:19:32.995Z,93422.92
2018-02-12T23:22:00.545Z,93426.22
2018-02-12T23:24:28.287Z,93433.20
2018-02-12T23:26:55.843Z,93423.75
2018-02-12T23:29:23.399Z,93431.15
2018-02-12T23:31:51.996Z,93429.92
2018-02-12T23:34:19.543Z,93429.09
2018-02-12T23:36:47.091Z,93426.64
2018-02-12T23:39:14.682Z,93428.68
2018-02-12T23:41:42.231Z,93428.28
2018-02-12T23:44:09.793Z,93429.08
2018-02-12T23:46:37.478Z,93436.08
2018-02-12T23:49:05.026Z,93434.02
2018-02-12T23:51:32.580Z,93436.09
2018-02-12T23:54:00.462Z,93436.08
2018-02-12T23:56:28.014Z,93434.83
2018-02-12T23:58:55.564Z,93443.88
